Time,TemperatureF,DewpointF,PressureIn,WindDirection,WindDirectionDegrees,WindSpeedMPH,WindSpeedGustMPH,Humidity,HourlyPrecipIn,Conditions,Clouds,dailyrainin,SolarRadiationWatts/m^2,SoftwareType,DateUTC
2013-08-18 00:02:00,66.0,64.0,-100.00,North,4,1.0,8.0,94,0.04,,,0.80,0.000000,,2013-08-18 05:02:00,
2013-08-18 00:42:00,65.0,64.0,-100.00,NE,40,0.0,4.0,98,0.03,,,0.83,0.000000,,2013-08-18 05:42:00,
2013-08-18 00:52:00,65.0,64.0,-100.00,NE,40,0.0,4.0,98,0.03,,,0.83,0.000000,,2013-08-18 05:52:00,
2013-08-18 01:01:00,65.0,64.0,-100.00,NE,40,0.0,4.0,98,0.03,,,0.83,0.000000,,2013-08-18 06:01:00,
2013-08-18 01:42:00,64.0,63.0,-100.00,North,9,1.0,5.0,98,0.03,,,0.86,0.000000,,2013-08-18 06:42:00,
2013-08-18 01:52:00,64.0,63.0,-100.00,North,9,1.0,5.0,98,0.03,,,0.86,0.000000,,2013-08-18 06:52:00,
2013-08-18 02:01:00,64.0,63.0,-100.00,North,9,1.0,5.0,98,0.03,,,0.86,0.000000,,2013-08-18 07:01:00,
2013-08-18 02:42:00,64.0,64.0,-100.00,NNE,28,0.0,4.0,99,0.02,,,0.88,0.000000,,2013-08-18 07:42:00,
2013-08-18 02:52:00,64.0,64.0,-100.00,NNE,28,0.0,4.0,99,0.02,,,0.88,0.000000,,2013-08-18 07:52:00,
2013-08-18 03:01:00,64.0,64.0,-100.00,NNE,28,0.0,4.0,99,0.02,,,0.88,0.000000,,2013-08-18 08:01:00,
2013-08-18 03:42:00,64.0,64.0,-100.00,North,356,0.0,2.0,99,0.02,,,0.90,0.000000,,2013-08-18 08:42:00,
2013-08-18 03:52:00,64.0,64.0,-100.00,North,356,0.0,2.0,99,0.02,,,0.90,0.000000,,2013-08-18 08:52:00,
2013-08-18 04:01:00,64.0,64.0,-100.00,North,356,0.0,2.0,99,0.02,,,0.90,0.000000,,2013-08-18 09:01:00,
2013-08-18 04:43:00,64.0,64.0,-100.00,ESE,106,1.0,2.0,100,0.01,,,0.91,0.000000,,2013-08-18 09:43:00,
2013-08-18 04:53:00,64.0,64.0,-100.00,ESE,106,1.0,2.0,100,0.01,,,0.91,0.000000,,2013-08-18 09:53:00,
2013-08-18 05:03:00,64.0,64.0,-100.00,ESE,106,1.0,2.0,100,0.01,,,0.91,0.000000,,2013-08-18 10:03:00,
2013-08-18 05:43:00,64.0,64.0,-100.00,SE,133,0.0,2.0,100,0.02,,,0.93,0.000000,,2013-08-18 10:43:00,
2013-08-18 05:52:00,64.0,64.0,-100.00,SE,133,0.0,2.0,100,0.02,,,0.93,0.000000,,2013-08-18 10:52:00,
2013-08-18 06:02:00,64.0,64.0,-100.00,SE,133,0.0,2.0,100,0.02,,,0.93,0.000000,,2013-08-18 11:02:00,
2013-08-18 06:42:00,63.0,63.0,-100.00,SSE,160,0.0,0.0,100,0.01,,,0.94,0.000000,,2013-08-18 11:42:00,
2013-08-18 06:52:00,63.0,63.0,-100.00,SSE,160,0.0,0.0,100,0.01,,,0.94,0.000000,,2013-08-18 11:52:00,
2013-08-18 07:01:00,63.0,63.0,-100.00,SSE,160,0.0,0.0,100,0.01,,,0.94,0.000000,,2013-08-18 12:01:00,
2013-08-18 07:42:00,64.0,64.0,-100.00,North,9,2.0,3.0,100,0.01,,,0.95,33.000000,,2013-08-18 12:42:00,
2013-08-18 07:52:00,64.0,64.0,-100.00,North,9,2.0,3.0,100,0.01,,,0.95,33.000000,,2013-08-18 12:52:00,
2013-08-18 08:01:00,64.0,64.0,-100.00,North,9,2.0,3.0,100,0.01,,,0.95,33.000000,,2013-08-18 13:01:00,
2013-08-18 08:42:00,67.0,66.0,-100.00,North,9,1.0,4.0,97,0.01,,,0.92,139.000000,,2013-08-18 13:42:00,
2013-08-18 08:52:00,67.0,66.0,-100.00,North,9,1.0,4.0,97,0.01,,,0.92,139.000000,,2013-08-18 13:52:00,
2013-08-18 09:01:00,67.0,66.0,-100.00,North,9,1.0,4.0,97,0.01,,,0.92,139.000000,,2013-08-18 14:01:00,
2013-08-18 09:42:00,70.0,66.0,-100.00,South,170,1.0,3.0,87,0.01,,,0.84,196.000000,,2013-08-18 14:42:00,
2013-08-18 09:53:00,70.0,66.0,-100.00,South,170,1.0,3.0,87,0.01,,,0.84,196.000000,,2013-08-18 14:53:00,
2013-08-18 10:01:00,70.0,66.0,-100.00,South,170,1.0,3.0,87,0.01,,,0.84,196.000000,,2013-08-18 15:01:00,
2013-08-18 10:43:00,76.0,67.0,-100.00,East,90,2.0,5.0,73,0.01,,,0.81,550.000000,,2013-08-18 15:43:00,
2013-08-18 10:54:00,76.0,67.0,-100.00,East,90,2.0,5.0,73,0.01,,,0.81,550.000000,,2013-08-18 15:54:00,
2013-08-18 11:03:00,76.0,67.0,-100.00,East,90,2.0,5.0,73,0.01,,,0.81,550.000000,,2013-08-18 16:03:00,
2013-08-18 11:42:00,74.0,66.0,-100.00,NNE,30,2.0,5.0,76,0.01,,,0.77,428.000000,,2013-08-18 16:42:00,
2013-08-18 11:52:00,74.0,66.0,-100.00,NNE,30,2.0,5.0,76,0.01,,,0.77,428.000000,,2013-08-18 16:52:00,
2013-08-18 12:02:00,74.0,66.0,-100.00,NNE,30,2.0,5.0,76,0.01,,,0.77,428.000000,,2013-08-18 17:02:00,
2013-08-18 12:43:00,77.0,68.0,-100.00,East,81,2.0,6.0,74,0.01,,,0.74,487.000000,,2013-08-18 17:43:00,
2013-08-18 12:52:00,77.0,68.0,-100.00,East,81,2.0,6.0,74,0.01,,,0.74,487.000000,,2013-08-18 17:52:00,
2013-08-18 13:02:00,77.0,68.0,-100.00,East,81,2.0,6.0,74,0.01,,,0.74,487.000000,,2013-08-18 18:02:00,
2013-08-18 13:42:00,78.0,68.0,-100.00,SSW,208,2.0,5.0,72,0.01,,,0.68,529.000000,,2013-08-18 18:42:00,
2013-08-18 13:52:00,78.0,68.0,-100.00,SSW,208,2.0,5.0,72,0.01,,,0.68,529.000000,,2013-08-18 18:52:00,
2013-08-18 14:01:00,78.0,68.0,-100.00,SSW,208,2.0,5.0,72,0.01,,,0.68,529.000000,,2013-08-18 19:01:00,
2013-08-18 14:42:00,80.0,66.0,-100.00,SE,136,2.0,7.0,63,0.00,,,0.66,765.000000,,2013-08-18 19:42:00,
2013-08-18 14:52:00,80.0,66.0,-100.00,SE,136,2.0,7.0,63,0.00,,,0.66,765.000000,,2013-08-18 19:52:00,
2013-08-18 15:02:00,80.0,66.0,-100.00,SE,136,2.0,7.0,63,0.00,,,0.66,765.000000,,2013-08-18 20:02:00,
2013-08-18 15:42:00,81.0,67.0,-100.00,WSW,257,2.0,6.0,62,0.01,,,0.67,565.000000,,2013-08-18 20:42:00,
2013-08-18 15:52:00,81.0,67.0,-100.00,WSW,257,2.0,6.0,62,0.01,,,0.67,565.000000,,2013-08-18 20:52:00,
2013-08-18 16:01:00,81.0,67.0,-100.00,WSW,257,2.0,6.0,62,0.01,,,0.67,565.000000,,2013-08-18 21:01:00,
2013-08-18 16:42:00,82.0,68.0,-100.00,West,272,2.0,9.0,63,0.01,,,0.68,677.000000,,2013-08-18 21:42:00,
2013-08-18 16:53:00,82.0,68.0,-100.00,West,272,2.0,9.0,63,0.01,,,0.68,677.000000,,2013-08-18 21:53:00,
2013-08-18 17:03:00,82.0,68.0,-100.00,West,272,2.0,9.0,63,0.01,,,0.68,677.000000,,2013-08-18 22:03:00,
2013-08-18 17:42:00,77.0,70.0,-100.00,SSE,160,2.0,4.0,79,0.00,,,0.67,220.000000,,2013-08-18 22:42:00,
2013-08-18 17:52:00,77.0,70.0,-100.00,SSE,160,2.0,4.0,79,0.00,,,0.67,220.000000,,2013-08-18 22:52:00,
2013-08-18 18:02:00,77.0,70.0,-100.00,SSE,160,2.0,4.0,79,0.00,,,0.67,220.000000,,2013-08-18 23:02:00,
2013-08-18 18:42:00,73.0,66.0,-100.00,South,184,2.0,8.0,80,0.01,,,0.55,58.000000,,2013-08-18 23:42:00,
2013-08-18 18:52:00,73.0,66.0,-100.00,South,184,2.0,8.0,80,0.01,,,0.55,58.000000,,2013-08-18 23:52:00,
2013-08-18 19:02:00,73.0,66.0,-100.00,South,184,2.0,8.0,80,0.01,,,0.55,58.000000,,2013-08-19 00:02:00,
2013-08-18 19:42:00,71.0,67.0,-100.00,SW,228,0.0,5.0,88,0.00,,,0.46,59.000000,,2013-08-19 00:42:00,
2013-08-18 19:52:00,71.0,67.0,-100.00,SW,228,0.0,5.0,88,0.00,,,0.46,59.000000,,2013-08-19 00:52:00,
2013-08-18 20:02:00,71.0,67.0,-100.00,SW,228,0.0,5.0,88,0.00,,,0.46,59.000000,,2013-08-19 01:02:00,
2013-08-18 20:42:00,68.0,67.0,-100.00,ESE,109,0.0,2.0,95,0.00,,,0.38,19.000000,,2013-08-19 01:42:00,
2013-08-18 20:52:00,68.0,67.0,-100.00,ESE,109,0.0,2.0,95,0.00,,,0.38,19.000000,,2013-08-19 01:52:00,
2013-08-18 21:06:00,68.0,67.0,-100.00,ESE,109,0.0,2.0,95,0.00,,,0.38,19.000000,,2013-08-19 02:06:00,
2013-08-18 21:42:00,67.0,66.0,-100.00,NNE,31,0.0,2.0,97,0.01,,,0.33,0.000000,,2013-08-19 02:42:00,
2013-08-18 21:52:00,67.0,66.0,-100.00,NNE,31,0.0,2.0,97,0.01,,,0.33,0.000000,,2013-08-19 02:52:00,
2013-08-18 22:01:00,67.0,66.0,-100.00,NNE,31,0.0,2.0,97,0.01,,,0.33,0.000000,,2013-08-19 03:01:00,
2013-08-18 22:42:00,66.0,66.0,-100.00,East,101,0.0,0.0,99,0.00,,,0.29,0.000000,,2013-08-19 03:42:00,
2013-08-18 22:53:00,66.0,66.0,-100.00,East,101,0.0,0.0,99,0.00,,,0.29,0.000000,,2013-08-19 03:53:00,
2013-08-18 23:03:00,66.0,66.0,-100.00,East,101,0.0,0.0,99,0.00,,,0.29,0.000000,,2013-08-19 04:03:00,
2013-08-18 23:42:00,65.0,65.0,-100.00,NNE,30,0.0,0.0,99,0.00,,,0.25,0.000000,,2013-08-19 04:42:00,
2013-08-18 23:53:00,65.0,65.0,-100.00,NNE,30,0.0,0.0,99,0.00,,,0.25,0.000000,,2013-08-19 04:53:00,